DW2770 Cefalu IT current weather conditions

sailwx.info

Wind from 156

Air temperature 18.3° C
Dewpoint 13.4° C

Last reported at 2017-May-27 21:00 UTC.
Time now 2017-May-27 21:17 UTC

Location: N 38°02' E 014°02'.
View on Google Maps.

See reports from other nearby stations

  
Tides and Currents Weather Stations Pressure Air Temp Water Temp Dewpoint Dewpoint Depression Visibility Wind Speed Wind Dir Waves Ship Positions
date/time (UTC)wind fromknots sea level pressurealtimeterstation pressurevisibilityair tempwater tempwave heightnotes
2017-May-27 21:00 156 18.3
2017-May-27 20:50 135 18.3
2017-May-27 20:30 160 3 gusting 4 18.3
2017-May-27 20:20 202 2 gusting 2 18.9
2017-May-27 19:50 135 18.9
2017-May-27 19:40 154 18.9
2017-May-27 19:30 164 19.4
2017-May-27 19:20 158 1 gusting 1 19.4
2017-May-27 19:10 159 19.4
2017-May-27 19:00 162 2 gusting 2 19.4
2017-May-27 18:50 158 0 gusting 1 20.0
2017-May-27 18:40 159 1 gusting 1 20.0
2017-May-27 18:30 129 20.0
2017-May-27 18:20 068 20.0
2017-May-27 18:10 068 0 gusting 2 20.6
2017-May-27 18:00 048 2 gusting 2 20.6
2017-May-27 17:30 045 1 gusting 2 20.6
2017-May-27 17:20 068 2 gusting 4 20.6
2017-May-27 17:10 065 2 gusting 4 20.6
2017-May-27 17:01 064 4 gusting 4 20.6
2017-May-27 16:50 068 2 gusting 4 20.6
2017-May-27 16:40 067 4 gusting 5 21.1
2017-May-27 16:20 045 2 gusting 2 21.1
2017-May-27 15:30 026 0 gusting 2 22.2
2017-May-27 15:11 045 3 gusting 4 21.7
2017-May-27 14:50 068 2 gusting 6 21.7
2017-May-27 14:30 068 1 gusting 4 21.7
2017-May-27 14:20 068 0 gusting 2 22.8
2017-May-27 14:10 068 2 gusting 4 22.2
2017-May-27 14:00 054 2 gusting 4 21.7
2017-May-27 13:50 068 4 gusting 5 21.7
2017-May-27 13:40 022 2 gusting 6 21.7
2017-May-27 13:20 045 1 gusting 2 22.2
2017-May-27 13:00 313 4 gusting 6 22.2
2017-May-27 12:50 292 3 gusting 4 22.2
2017-May-27 12:40 292 2 gusting 6 22.2
2017-May-27 11:50 292 1 gusting 5 22.2
2017-May-27 11:30 292 1 gusting 4 22.2
2017-May-27 11:20 335 1 gusting 2 22.8
2017-May-27 11:10 225 3 gusting 5 22.2
2017-May-27 11:00 063 0 gusting 5 21.7
2017-May-27 10:50 258 4 gusting 6 21.7
2017-May-27 10:40 225 5 gusting 6 22.2
2017-May-27 10:30 283 2 gusting 2 22.2
2017-May-27 10:00 351 3 gusting 6 21.7
2017-May-27 09:50 270 4 gusting 4 21.7
2017-May-27 09:40 248 3 gusting 4 21.1
2017-May-27 09:30 316 0 gusting 2 21.7
2017-May-27 09:10 248 2 gusting 2 21.1
2017-May-27 09:00 269 2 gusting 5 21.1
2017-May-27 08:50 308 4 gusting 8 21.1
2017-May-27 08:40 270 4 gusting 6 21.1
2017-May-27 07:40 248 4 gusting 5 21.1
2017-May-27 07:20 289 1 gusting 6 21.1
2017-May-27 07:00 290 4 gusting 6 21.1
2017-May-27 06:40 225 6 gusting 6 20.6
2017-May-27 06:10 225 2 gusting 5 20.6
2017-May-27 06:00 311 2 gusting 5 20.6
2017-May-27 05:40 248 2 gusting 6 20.0
2017-May-27 05:20 235 7 gusting 8 19.4
2017-May-27 05:10 202 6 gusting 6 19.4
2017-May-27 04:20 192 5 gusting 6 18.9
2017-May-27 04:10 202 5 gusting 6 18.9
2017-May-27 04:00 180 4 gusting 8 18.9
2017-May-27 03:50 190 8 gusting 8 18.3
2017-May-27 03:40 202 2 gusting 6 18.3
2017-May-27 03:10 180 1 gusting 5 18.3
2017-May-27 03:00 180 0 gusting 2 17.8
2017-May-27 02:50 158 17.8
2017-May-27 02:10 135 3 gusting 4 17.2
2017-May-27 02:00 158 2 gusting 4 17.2
2017-May-27 01:30 180 2 gusting 5 17.2
2017-May-27 01:20 112 2 gusting 4 17.2
2017-May-27 01:10 180 1 gusting 2 17.2
2017-May-27 01:00 158 2 gusting 4 17.2
2017-May-27 00:50 141 2 gusting 4 17.2
2017-May-26 23:50 194 4 gusting 4 17.8
2017-May-26 23:40 202 4 gusting 4 17.8
2017-May-26 23:30 112 17.8
2017-May-26 23:10 090 0 gusting 2 17.8
2017-May-26 23:00 068 17.8
2017-May-26 22:50 076 17.8
2017-May-26 22:40 045 17.8
2017-May-26 22:30 022 17.8
2017-May-26 22:20 078 0 gusting 0 17.2
2017-May-26 22:10 087 17.2
2017-May-26 22:00 045 0 gusting 0 17.2
2017-May-26 21:50 060 17.2
2017-May-26 21:40 045 17.8
2017-May-26 21:20 068 17.8
2017-May-26 21:10 112 17.8
2017-May-26 20:50 048 17.8
2017-May-26 20:40 045 17.8
2017-May-26 20:30 045 17.8
2017-May-26 20:20 180 17.8
2017-May-26 20:10 080 17.8
2017-May-26 20:00 045 17.8
2017-May-26 19:40 107 18.3
2017-May-26 19:30 068 18.3
2017-May-26 19:20 051 18.3
2017-May-26 19:10 025 18.3
2017-May-26 19:00 112 18.9
2017-May-26 18:50 022 18.9
2017-May-26 18:40 068 1 gusting 1 19.4
2017-May-26 18:30 060 19.4
2017-May-26 18:20 045 19.4
2017-May-26 18:10 068 1 gusting 5 20.0
2017-May-26 17:50 068 1 gusting 5 20.0
2017-May-26 17:40 068 5 gusting 5 20.0
2017-May-26 17:20 068 1 gusting 2 20.6
2017-May-26 17:10 068 1 gusting 1 20.6
2017-May-26 17:00 068 0 gusting 5 20.6
2017-May-26 16:50 068 4 gusting 4 20.6
2017-May-26 16:40 045 4 gusting 5 20.0
2017-May-26 16:30 090 5 gusting 6 20.6
2017-May-26 16:20 068 3 gusting 5 20.6
2017-May-26 16:10 083 5 gusting 6 20.6
2017-May-26 16:00 068 2 gusting 5 20.6
2017-May-26 15:50 068 4 gusting 6 20.6
2017-May-26 15:40 058 3 gusting 6 20.6
2017-May-26 15:30 045 2 gusting 6 20.6
2017-May-26 15:20 045 5 gusting 6 21.1
2017-May-26 15:00 045 6 gusting 6 21.1
2017-May-26 14:50 068 4 gusting 6 21.1
2017-May-26 14:40 054 2 gusting 6 20.6
2017-May-26 14:30 068 2 gusting 6 21.1
2017-May-26 14:10 056 2 gusting 6 21.1
2017-May-26 14:00 068 4 gusting 6 21.1
2017-May-26 13:50 068 1 gusting 6 21.1
2017-May-26 13:40 068 5 gusting 6 21.1
2017-May-26 13:30 045 3 gusting 6 21.1
2017-May-26 13:20 090 4 gusting 5 21.7
2017-May-26 13:00 068 5 gusting 6 21.1
2017-May-26 12:30 068 4 gusting 7 21.1
2017-May-26 12:00 046 6 gusting 6 21.1
2017-May-26 11:50 068 4 gusting 5 21.1
2017-May-26 11:30 045 4 gusting 6 21.1
2017-May-26 11:20 045 6 gusting 7 21.1
2017-May-26 11:10 029 6 gusting 6 21.1
2017-May-26 10:40 045 4 gusting 6 21.1
2017-May-26 10:30 125 2 gusting 6 21.7
2017-May-26 10:20 045 4 gusting 7 21.1
2017-May-26 10:10 068 5 gusting 6 21.7
2017-May-26 09:50 045 4 gusting 6 21.7
2017-May-26 09:40 054 4 gusting 6 21.7
2017-May-26 09:30 086 0 gusting 5 21.7
2017-May-26 09:20 045 1 gusting 6 21.1
2017-May-26 09:10 062 1 gusting 4 21.1
2017-May-26 08:30 045 0 gusting 6 21.7
2017-May-26 08:20 068 3 gusting 6 21.7
2017-May-26 08:10 045 6 gusting 6 21.1
2017-May-26 07:50 068 3 gusting 5 21.1
2017-May-26 07:40 042 4 gusting 6 21.1
2017-May-26 07:30 068 1 gusting 6 21.1
2017-May-26 07:20 045 2 gusting 5 21.1
2017-May-26 06:50 045 4 gusting 5 21.1
2017-May-26 06:40 068 1 gusting 5 20.6
2017-May-26 06:30 045 2 gusting 6 20.6
2017-May-26 06:00 068 2 gusting 2 20.6
2017-May-26 05:50 068 3 gusting 5 20.6
2017-May-26 05:40 068 5 gusting 5 20.6
2017-May-26 05:20 045 1 gusting 2 20.6
2017-May-26 05:10 090 0 gusting 1 20.0
2017-May-26 04:50 158 19.4
2017-May-26 04:40 180 0 gusting 0 19.4
2017-May-26 04:30 180 18.9
2017-May-26 04:20 158 0 gusting 1 18.9
2017-May-26 03:52 202 1 gusting 1 18.9
2017-May-26 03:40 180 18.3
2017-May-26 03:30 158 0 gusting 1 18.9
2017-May-26 03:20 180 1 gusting 1 18.9
2017-May-26 03:10 185 1 gusting 1 18.9
2017-May-26 03:00 135 0 gusting 1 18.9
2017-May-26 02:40 180 0 gusting 2 18.9
2017-May-26 02:30 180 1 gusting 2 18.3
2017-May-26 02:20 180 1 gusting 4 18.9
2017-May-26 02:00 180 1 gusting 4 18.9
2017-May-26 01:50 202 2 gusting 4 18.9
2017-May-26 01:40 180 2 gusting 4 18.9
2017-May-26 01:30 180 1 gusting 2 18.9
2017-May-26 01:00 180 2 gusting 2 19.4
2017-May-26 00:30 180 18.9
2017-May-26 00:10 090 18.9
2017-May-25 23:40 037 19.4
2017-May-25 23:30 022 19.4
2017-May-25 23:10 044 19.4
2017-May-25 22:50 068 19.4
2017-May-25 22:40 090 18.9
2017-May-25 22:20 135 0 gusting 1 19.4
2017-May-25 22:10 065 19.4
2017-May-25 22:00 104 19.4
2017-May-25 21:50 248 19.4
2017-May-25 21:30 112 20.0
2017-May-25 21:20 158 20.6